Time;durP1;ratioP1;P1;durP2;ratioP2;P2;SDS_P1;SDS_P2;PMS_P1;PMS_P2;Temp;Humidity;BMP_temperature;BMP_pressure;BME280_temperature;BME280_humidity;BME280_pressure;Samples;Min_cycle;Max_cycle;Signal;HPM_P1;HPM_P2
2022/07/28 00:00:15;;;;;;;0.15;0.10;;;12.40;99.90;;;;;;5131546;28;20044;-88
2022/07/28 00:02:42;;;;;;;0.10;0.10;;;12.30;99.90;;;;;;5131672;28;20043;-88
2022/07/28 00:05:09;;;;;;;0.25;0.10;;;12.30;99.90;;;;;;5131401;28;20054;-89
2022/07/28 00:07:36;;;;;;;0.35;0.20;;;12.20;99.90;;;;;;5165629;27;20123;-85
2022/07/28 00:10:04;;;;;;;0.00;0.00;;;12.20;99.90;;;;;;5165484;27;20122;-89
2022/07/28 00:12:30;;;;;;;0.20;0.20;;;12.10;99.90;;;;;;5148297;28;20477;-88
2022/07/28 00:14:57;;;;;;;0.00;0.00;;;12.10;99.90;;;;;;5130820;28;20117;-89
2022/07/28 00:17:24;;;;;;;0.10;0.10;;;12.00;99.90;;;;;;5131168;28;20039;-89
2022/07/28 00:19:50;;;;;;;0.10;0.10;;;12.00;99.90;;;;;;5147827;28;20092;-89
2022/07/28 00:22:17;;;;;;;0.15;0.15;;;12.00;99.90;;;;;;5148923;28;20039;-84
2022/07/28 00:24:44;;;;;;;0.10;0.10;;;11.90;99.90;;;;;;5147872;28;20634;-89
2022/07/28 00:27:12;;;;;;;0.00;0.00;;;11.90;99.90;;;;;;5131043;28;20126;-90
2022/07/28 00:29:39;;;;;;;0.10;0.10;;;11.90;99.90;;;;;;5148463;28;20042;-89
2022/07/28 00:32:06;;;;;;;0.10;0.10;;;11.90;99.90;;;;;;5148674;28;20040;-85
2022/07/28 00:34:32;;;;;;;0.10;0.10;;;11.90;99.90;;;;;;5147882;28;20486;-85
2022/07/28 00:36:59;;;;;;;0.10;0.10;;;11.90;99.90;;;;;;5147331;28;20488;-89
2022/07/28 00:39:26;;;;;;;0.10;0.10;;;11.90;99.90;;;;;;5146798;28;20108;-89
2022/07/28 00:41:53;;;;;;;0.00;0.00;;;11.90;99.90;;;;;;5131177;28;20043;-85
2022/07/28 00:44:19;;;;;;;0.10;0.10;;;11.90;99.90;;;;;;5147761;28;20051;-85
2022/07/28 00:46:46;;;;;;;0.43;0.13;;;11.90;99.90;;;;;;5146784;28;20036;-85
2022/07/28 00:49:14;;;;;;;0.45;0.30;;;12.00;99.90;;;;;;5148005;28;20404;-89
2022/07/28 00:51:41;;;;;;;0.10;0.10;;;12.00;99.90;;;;;;5130757;28;20309;-88
2022/07/28 00:54:08;;;;;;;0.47;0.30;;;12.00;99.90;;;;;;5147158;28;20046;-88
2022/07/28 00:56:34;;;;;;;0.00;0.00;;;12.00;99.90;;;;;;5130762;28;20130;-85
2022/07/28 00:59:01;;;;;;;0.20;0.10;;;12.00;99.90;;;;;;5130705;28;20046;-89
2022/07/28 01:01:28;;;;;;;0.10;0.10;;;12.00;99.90;;;;;;5147312;28;20044;-89
2022/07/28 01:03:58;;;;;;;0.10;0.10;;;11.90;99.90;;;;;;5146646;28;20039;-89
2022/07/28 01:06:37;;;;;;;0.20;0.20;;;11.90;99.90;;;;;;5130372;28;20040;-89
2022/07/28 01:09:10;;;;;;;0.22;0.10;;;11.90;99.90;;;;;;5146718;28;20043;-84
2022/07/28 01:12:13;;;;;;;0.10;0.10;;;11.80;99.90;;;;;;5164328;27;20035;-84
2022/07/28 01:15:05;;;;;;;0.22;0.22;;;11.70;99.90;;;;;;5164992;27;20043;-86
2022/07/28 01:17:53;;;;;;;0.10;0.10;;;11.70;99.90;;;;;;5163800;27;20545;-85
2022/07/28 01:20:31;;;;;;;0.10;0.10;;;11.60;99.90;;;;;;5130824;28;20071;-88
2022/07/28 01:23:21;;;;;;;0.22;0.20;;;11.60;99.90;;;;;;5109989;28;20044;-89
2022/07/28 01:26:18;;;;;;;0.08;0.08;;;11.50;99.90;;;;;;5143562;28;20503;-89
2022/07/28 01:29:06;;;;;;;0.08;0.08;;;11.50;99.90;;;;;;5125651;28;20044;-89
2022/07/28 01:31:38;;;;;;;0.10;0.10;;;11.50;99.90;;;;;;5129727;28;20088;-84
2022/07/28 01:34:09;;;;;;;0.10;0.10;;;11.50;99.90;;;;;;5129913;28;20036;-89
2022/07/28 01:36:41;;;;;;;0.10;0.10;;;11.50;99.90;;;;;;5130267;28;20046;-89
2022/07/28 01:39:10;;;;;;;0.00;0.00;;;11.40;99.90;;;;;;5130688;28;20100;-90
2022/07/28 01:41:39;;;;;;;0.10;0.10;;;11.40;99.90;;;;;;5146941;28;20081;-85
2022/07/28 01:44:12;;;;;;;0.10;0.10;;;11.40;99.90;;;;;;5129407;28;20047;-85
2022/07/28 01:46:40;;;;;;;0.10;0.10;;;11.40;99.90;;;;;;5130399;28;20043;-89
2022/07/28 01:49:09;;;;;;;0.10;0.10;;;11.40;99.90;;;;;;5145730;28;20039;-85
2022/07/28 01:51:36;;;;;;;0.20;0.20;;;11.40;99.90;;;;;;5135520;28;20035;-89
2022/07/28 01:54:05;;;;;;;0.20;0.15;;;11.30;99.90;;;;;;5136336;28;20044;-88
2022/07/28 01:56:33;;;;;;;0.10;0.10;;;11.30;99.90;;;;;;5153370;28;20716;-88
2022/07/28 01:59:04;;;;;;;0.10;0.10;;;11.30;99.90;;;;;;5152686;28;20035;-89
2022/07/28 02:01:35;;;;;;;0.15;0.15;;;11.30;99.90;;;;;;5136422;28;20043;-90
2022/07/28 02:04:04;;;;;;;0.10;0.10;;;11.30;99.90;;;;;;5136693;28;20036;-85
2022/07/28 02:06:34;;;;;;;0.13;0.13;;;11.30;99.90;;;;;;5153309;28;20039;-89
2022/07/28 02:09:03;;;;;;;0.10;0.10;;;11.30;99.90;;;;;;5153174;28;20122;-89
2022/07/28 02:11:38;;;;;;;0.43;0.10;;;11.30;99.90;;;;;;5136976;28;20047;-85
2022/07/28 02:14:16;;;;;;;0.20;0.20;;;11.20;99.90;;;;;;5136177;28;20036;-85
2022/07/28 02:16:47;;;;;;;0.10;0.10;;;11.30;99.90;;;;;;5153001;28;20420;-84
2022/07/28 02:19:16;;;;;;;0.10;0.10;;;11.20;99.90;;;;;;5136861;28;20047;-89
2022/07/28 02:21:48;;;;;;;0.10;0.10;;;11.20;99.90;;;;;;5136248;28;20046;-85
2022/07/28 02:24:19;;;;;;;0.25;0.20;;;11.30;99.90;;;;;;5136020;28;20039;-85
2022/07/28 02:26:52;;;;;;;0.10;0.10;;;11.20;99.90;;;;;;5135837;28;20054;-85
2022/07/28 02:29:23;;;;;;;0.08;0.08;;;11.20;99.90;;;;;;5135743;28;20050;-85
2022/07/28 02:31:58;;;;;;;0.15;0.13;;;11.20;99.90;;;;;;5136006;28;20042;-90
2022/07/28 02:34:26;;;;;;;0.00;0.00;;;11.20;99.90;;;;;;5136147;28;20059;-89
2022/07/28 02:36:56;;;;;;;0.00;0.00;;;11.20;99.90;;;;;;5152830;28;20312;-89
2022/07/28 02:39:29;;;;;;;0.10;0.10;;;11.20;99.90;;;;;;5136436;28;20047;-89
2022/07/28 02:42:09;;;;;;;0.10;0.10;;;11.20;99.90;;;;;;5135941;28;20046;-85
2022/07/28 02:44:55;;;;;;;0.10;0.10;;;11.20;99.90;;;;;;5169673;27;20063;-85
2022/07/28 02:47:25;;;;;;;0.10;0.10;;;11.20;99.90;;;;;;5135910;28;20453;-85
2022/07/28 02:49:54;;;;;;;0.20;0.10;;;11.20;99.90;;;;;;5135722;28;20074;-90
2022/07/28 02:52:23;;;;;;;0.20;0.20;;;11.20;99.90;;;;;;5152244;28;20065;-89
2022/07/28 02:54:51;;;;;;;0.05;0.05;;;11.20;99.90;;;;;;5135951;28;20085;-89
2022/07/28 02:57:19;;;;;;;0.00;0.00;;;11.20;99.90;;;;;;5152089;28;20039;-85
2022/07/28 02:59:47;;;;;;;0.10;0.10;;;11.20;99.90;;;;;;5135606;28;20043;-89
2022/07/28 03:02:18;;;;;;;0.20;0.20;;;11.20;99.90;;;;;;5166914;27;20044;-85
2022/07/28 03:04:58;;;;;;;0.35;0.25;;;11.20;99.90;;;;;;5167481;27;20164;-85
2022/07/28 03:07:29;;;;;;;0.30;0.30;;;11.20;99.90;;;;;;5132960;28;20484;-89
2022/07/28 03:09:57;;;;;;;0.10;0.10;;;11.20;99.90;;;;;;5132782;28;20043;-89
2022/07/28 03:12:24;;;;;;;0.25;0.15;;;11.10;99.90;;;;;;5132586;28;20039;-90
2022/07/28 03:14:51;;;;;;;0.17;0.17;;;11.10;99.90;;;;;;5132627;28;20547;-89
2022/07/28 03:17:18;;;;;;;0.10;0.10;;;11.20;99.90;;;;;;5149260;28;20126;-85
2022/07/28 03:19:45;;;;;;;0.10;0.10;;;11.20;99.90;;;;;;5166501;27;20036;-85
2022/07/28 03:22:13;;;;;;;0.00;0.00;;;11.20;99.90;;;;;;5132113;28;20389;-85
2022/07/28 03:24:43;;;;;;;0.10;0.10;;;11.20;99.90;;;;;;5148267;28;20107;-85
2022/07/28 03:27:30;;;;;;;0.17;0.17;;;11.20;99.90;;;;;;5131718;28;20040;-85
2022/07/28 03:30:22;;;;;;;0.10;0.10;;;11.20;99.90;;;;;;5132266;28;20032;-85
2022/07/28 03:32:57;;;;;;;0.10;0.10;;;11.20;99.90;;;;;;5128752;28;20039;-89
2022/07/28 03:35:24;;;;;;;0.10;0.10;;;11.20;99.90;;;;;;5132380;28;20047;-84
2022/07/28 03:37:58;;;;;;;0.10;0.10;;;11.20;99.90;;;;;;5149463;28;20047;-85
2022/07/28 03:40:28;;;;;;;0.10;0.10;;;11.30;99.90;;;;;;5133223;28;20127;-89
2022/07/28 03:42:56;;;;;;;0.10;0.10;;;11.20;99.90;;;;;;5132405;28;20510;-85
2022/07/28 03:45:24;;;;;;;0.08;0.08;;;11.30;99.90;;;;;;5131273;28;20047;-89
2022/07/28 03:47:56;;;;;;;0.10;0.10;;;11.30;99.90;;;;;;5148804;28;20126;-89
2022/07/28 03:50:25;;;;;;;0.00;0.00;;;11.30;99.90;;;;;;5133400;28;20040;-89
2022/07/28 03:52:52;;;;;;;0.00;0.00;;;11.30;99.90;;;;;;5149621;28;20558;-89
2022/07/28 03:55:19;;;;;;;0.20;0.20;;;11.30;99.90;;;;;;5149306;28;20050;-90
2022/07/28 03:57:46;;;;;;;0.10;0.10;;;11.30;99.90;;;;;;5132959;28;20044;-89
2022/07/28 04:00:17;;;;;;;0.30;0.20;;;11.40;99.90;;;;;;5132203;28;20050;-85
2022/07/28 04:02:45;;;;;;;0.10;0.10;;;11.40;99.90;;;;;;5132139;28;20043;-85
2022/07/28 04:05:14;;;;;;;0.00;0.00;;;11.40;99.90;;;;;;5148539;28;20050;-88
2022/07/28 04:07:41;;;;;;;0.15;0.15;;;11.50;99.90;;;;;;5166353;27;20045;-85
2022/07/28 04:10:10;;;;;;;0.10;0.10;;;11.50;99.90;;;;;;5149537;28;20180;-89
2022/07/28 04:12:49;;;;;;;0.10;0.10;;;11.50;99.90;;;;;;5166177;27;20039;-84
2022/07/28 04:15:17;;;;;;;0.10;0.10;;;11.50;99.90;;;;;;5165614;27;20035;-89
2022/07/28 04:17:44;;;;;;;0.22;0.20;;;11.50;99.90;;;;;;5131911;28;20040;-89
2022/07/28 04:20:11;;;;;;;0.10;0.10;;;11.50;99.90;;;;;;5149028;28;20044;-84
2022/07/28 04:22:38;;;;;;;0.28;0.10;;;11.60;99.90;;;;;;5166179;27;20130;-89
2022/07/28 04:25:05;;;;;;;0.00;0.00;;;11.60;99.90;;;;;;5131668;28;20031;-85
2022/07/28 04:27:35;;;;;;;0.10;0.10;;;11.60;99.90;;;;;;5131328;28;20131;-85
2022/07/28 04:30:05;;;;;;;0.20;0.15;;;11.60;99.90;;;;;;5131236;28;20036;-85
2022/07/28 04:32:32;;;;;;;0.20;0.20;;;11.60;99.90;;;;;;5130833;28;20699;-85
2022/07/28 04:34:58;;;;;;;0.10;0.10;;;11.60;99.90;;;;;;5148315;28;20031;-84
2022/07/28 04:37:26;;;;;;;0.10;0.10;;;11.70;99.90;;;;;;5147486;28;20035;-85
2022/07/28 04:39:53;;;;;;;0.20;0.20;;;11.70;99.90;;;;;;5148482;28;20047;-84
2022/07/28 04:42:20;;;;;;;0.00;0.00;;;11.70;99.90;;;;;;5131277;28;20055;-85
2022/07/28 04:44:47;;;;;;;0.00;0.00;;;11.80;99.90;;;;;;5131472;28;20485;-85
2022/07/28 04:47:14;;;;;;;0.17;0.10;;;11.80;99.90;;;;;;5131100;28;20044;-89
2022/07/28 04:49:41;;;;;;;0.05;0.05;;;11.80;99.90;;;;;;5147820;28;20042;-89
2022/07/28 04:52:07;;;;;;;0.03;0.03;;;11.90;99.90;;;;;;5131414;28;20032;-85
2022/07/28 04:54:36;;;;;;;0.20;0.20;;;11.90;99.90;;;;;;5130976;28;20672;-89
2022/07/28 04:57:03;;;;;;;0.10;0.10;;;11.90;99.90;;;;;;5131340;28;20078;-89
2022/07/28 04:59:30;;;;;;;0.28;0.20;;;12.00;99.90;;;;;;5130437;28;20054;-85
2022/07/28 05:01:57;;;;;;;0.10;0.10;;;12.00;99.90;;;;;;5148689;28;20489;-85
2022/07/28 05:04:23;;;;;;;0.20;0.20;;;12.10;99.90;;;;;;5130833;28;20511;-84
2022/07/28 05:06:50;;;;;;;0.10;0.10;;;12.10;99.90;;;;;;5130268;28;20043;-89
2022/07/28 05:09:17;;;;;;;0.13;0.13;;;12.10;99.90;;;;;;5165328;27;20043;-88
2022/07/28 05:11:44;;;;;;;0.25;0.22;;;12.20;99.90;;;;;;5148705;28;20039;-84
2022/07/28 05:14:10;;;;;;;0.60;0.20;;;12.20;99.90;;;;;;5147524;28;20485;-89
2022/07/28 05:16:37;;;;;;;0.05;0.05;;;12.30;99.90;;;;;;5130042;28;20036;-85
2022/07/28 05:19:04;;;;;;;0.10;0.10;;;12.30;99.90;;;;;;5148162;28;20035;-89
2022/07/28 05:21:30;;;;;;;0.25;0.10;;;12.30;99.90;;;;;;5148092;28;20134;-90
2022/07/28 05:23:57;;;;;;;0.20;0.20;;;12.30;99.90;;;;;;5147999;28;20035;-85
2022/07/28 05:26:25;;;;;;;0.10;0.10;;;12.30;99.90;;;;;;5129584;28;20042;-85
2022/07/28 05:28:52;;;;;;;0.20;0.13;;;12.30;99.90;;;;;;5130668;28;20414;-88
2022/07/28 05:31:19;;;;;;;0.22;0.20;;;12.40;99.90;;;;;;5147961;28;20054;-89
2022/07/28 05:33:45;;;;;;;0.10;0.10;;;12.40;99.90;;;;;;5130400;28;20436;-85
2022/07/28 05:36:12;;;;;;;0.15;0.15;;;12.50;99.90;;;;;;5130244;28;20122;-89
2022/07/28 05:38:39;;;;;;;0.00;0.00;;;12.60;99.90;;;;;;5164337;27;20134;-85
2022/07/28 05:41:06;;;;;;;0.10;0.10;;;12.70;99.90;;;;;;5130682;28;20069;-89
2022/07/28 05:43:36;;;;;;;0.40;0.28;;;12.80;99.90;;;;;;5130877;28;20097;-85
2022/07/28 05:46:03;;;;;;;0.40;0.20;;;12.90;99.90;;;;;;5164512;27;20449;-89
2022/07/28 05:48:30;;;;;;;0.28;0.20;;;13.00;99.90;;;;;;5130086;28;20035;-89
2022/07/28 05:50:57;;;;;;;0.28;0.20;;;13.00;99.90;;;;;;5130908;28;20032;-89
2022/07/28 05:53:24;;;;;;;0.10;0.10;;;13.20;99.90;;;;;;5147255;28;20417;-88
2022/07/28 05:55:51;;;;;;;0.10;0.10;;;13.30;99.90;;;;;;5147241;28;20097;-85
2022/07/28 05:58:22;;;;;;;0.10;0.10;;;13.30;99.90;;;;;;5130545;28;20043;-85
2022/07/28 06:00:49;;;;;;;0.10;0.10;;;13.40;99.90;;;;;;5146498;28;20143;-85
2022/07/28 06:03:16;;;;;;;0.10;0.10;;;13.50;99.90;;;;;;5146862;28;20036;-85
2022/07/28 06:05:42;;;;;;;0.17;0.17;;;13.70;99.90;;;;;;5146632;28;20042;-89
2022/07/28 06:08:09;;;;;;;0.13;0.10;;;13.80;99.90;;;;;;5147029;28;20093;-89
2022/07/28 06:13:21;;;;;;;0.10;0.10;;;13.90;99.90;;;;;;5161952;28;20036;-85
2022/07/28 06:15:48;;;;;;;2.03;0.10;;;13.90;99.90;;;;;;5146806;28;20812;-89
2022/07/28 06:18:15;;;;;;;0.20;0.10;;;14.00;99.90;;;;;;5147530;28;20082;-90
2022/07/28 06:20:42;;;;;;;0.20;0.20;;;14.00;99.90;;;;;;5129990;28;20095;-85
2022/07/28 06:23:08;;;;;;;0.17;0.10;;;14.10;99.90;;;;;;5129864;28;20075;-85
2022/07/28 06:25:35;;;;;;;0.00;0.00;;;14.20;99.90;;;;;;5130336;28;20572;-86
2022/07/28 06:28:03;;;;;;;0.10;0.10;;;14.20;99.90;;;;;;5163550;28;20442;-85
2022/07/28 06:30:30;;;;;;;0.10;0.10;;;14.30;99.90;;;;;;5146644;28;20047;-87
2022/07/28 06:32:57;;;;;;;0.17;0.13;;;14.40;99.90;;;;;;5130200;28;20110;-85
2022/07/28 06:35:24;;;;;;;0.00;0.00;;;14.20;99.90;;;;;;5130110;28;20476;-89
2022/07/28 06:37:52;;;;;;;0.00;0.00;;;14.40;99.90;;;;;;5131566;28;20050;-89
2022/07/28 06:40:19;;;;;;;0.10;0.10;;;14.50;99.90;;;;;;5151183;28;20035;-85
2022/07/28 06:42:48;;;;;;;0.00;0.00;;;14.50;99.90;;;;;;5167623;27;20052;-84
2022/07/28 06:45:15;;;;;;;0.00;0.00;;;14.60;99.90;;;;;;5150755;28;20043;-85
2022/07/28 06:47:42;;;;;;;0.00;0.00;;;14.70;99.90;;;;;;5133694;28;20039;-89
2022/07/28 06:50:09;;;;;;;0.10;0.10;;;14.70;99.90;;;;;;5150948;28;20046;-85
2022/07/28 06:52:36;;;;;;;0.20;0.10;;;14.80;99.90;;;;;;5133815;28;20046;-89
2022/07/28 06:55:04;;;;;;;0.03;0.03;;;14.90;99.90;;;;;;5134228;28;20043;-89
2022/07/28 06:57:32;;;;;;;0.20;0.20;;;15.00;99.90;;;;;;5134129;28;20051;-89
2022/07/28 07:00:03;;;;;;;0.13;0.10;;;15.00;99.90;;;;;;5133145;28;20073;-85
2022/07/28 07:02:29;;;;;;;0.43;0.20;;;15.10;99.90;;;;;;5133838;28;20035;-89
2022/07/28 07:04:56;;;;;;;0.17;0.13;;;15.20;99.90;;;;;;5133525;28;20039;-89
2022/07/28 07:07:25;;;;;;;0.28;0.20;;;15.30;99.90;;;;;;5150249;28;20035;-89
2022/07/28 07:09:51;;;;;;;0.10;0.10;;;15.30;99.90;;;;;;5149967;28;20176;-89
2022/07/28 07:12:18;;;;;;;0.13;0.13;;;15.30;99.90;;;;;;5133444;28;20551;-85
2022/07/28 07:14:45;;;;;;;0.20;0.10;;;15.40;99.90;;;;;;5133137;28;20126;-85
2022/07/28 07:17:11;;;;;;;0.10;0.10;;;15.50;99.90;;;;;;5133849;28;20081;-85
2022/07/28 07:19:38;;;;;;;0.03;0.03;;;15.50;99.90;;;;;;5132892;28;20039;-85
2022/07/28 07:22:05;;;;;;;0.15;0.10;;;15.50;99.90;;;;;;5132700;28;20043;-85
2022/07/28 07:24:31;;;;;;;0.10;0.10;;;15.60;99.90;;;;;;5150082;28;20043;-89
2022/07/28 07:26:58;;;;;;;0.10;0.10;;;15.60;99.90;;;;;;5149769;28;20131;-90
2022/07/28 07:29:25;;;;;;;0.10;0.10;;;15.70;99.90;;;;;;5133586;28;20456;-89
2022/07/28 07:31:51;;;;;;;0.28;0.17;;;15.70;99.90;;;;;;5149627;28;20453;-85
2022/07/28 07:34:18;;;;;;;0.00;0.00;;;15.70;99.90;;;;;;5133389;28;20083;-85
2022/07/28 07:36:45;;;;;;;0.10;0.10;;;15.70;99.90;;;;;;5149906;28;20118;-89
2022/07/28 07:39:12;;;;;;;0.10;0.10;;;15.80;99.90;;;;;;5166731;27;20408;-88
2022/07/28 07:41:39;;;;;;;0.10;0.10;;;15.90;99.90;;;;;;5149763;28;20035;-88
2022/07/28 07:44:08;;;;;;;0.00;0.00;;;16.00;99.90;;;;;;5149454;28;20093;-85
2022/07/28 07:46:37;;;;;;;0.05;0.05;;;16.10;99.90;;;;;;5131939;28;20496;-85
2022/07/28 07:49:04;;;;;;;1.08;0.47;;;16.20;99.90;;;;;;5131766;28;20478;-85
2022/07/28 07:51:31;;;;;;;0.10;0.10;;;16.30;99.90;;;;;;5132520;28;20126;-89
2022/07/28 07:53:58;;;;;;;0.10;0.10;;;16.40;99.90;;;;;;5132083;28;20042;-85
2022/07/28 07:56:24;;;;;;;0.10;0.10;;;16.60;99.90;;;;;;5132769;28;20040;-89
2022/07/28 07:58:52;;;;;;;0.10;0.03;;;16.60;99.90;;;;;;5132067;28;20491;-85
2022/07/28 08:01:19;;;;;;;0.40;0.40;;;16.70;99.90;;;;;;5132611;28;20118;-90
2022/07/28 08:03:45;;;;;;;0.00;0.00;;;16.70;99.90;;;;;;5166561;27;20492;-86
2022/07/28 08:06:12;;;;;;;0.03;0.03;;;16.70;99.90;;;;;;5149201;28;20043;-85
2022/07/28 08:08:39;;;;;;;0.10;0.10;;;16.80;99.90;;;;;;5131924;28;20035;-85
2022/07/28 08:11:05;;;;;;;0.00;0.00;;;16.90;99.90;;;;;;5149010;28;20040;-89
2022/07/28 08:13:32;;;;;;;0.13;0.10;;;17.00;99.90;;;;;;5149699;28;20031;-89
2022/07/28 08:15:59;;;;;;;1.95;0.40;;;17.10;99.90;;;;;;5148511;28;20062;-85
2022/07/28 08:18:25;;;;;;;0.00;0.00;;;17.20;99.90;;;;;;5149052;28;20036;-86
2022/07/28 08:20:52;;;;;;;0.00;0.00;;;17.40;99.90;;;;;;5131575;28;20133;-85
2022/07/28 08:23:19;;;;;;;0.10;0.00;;;17.60;99.90;;;;;;5166274;27;20551;-85
2022/07/28 08:25:46;;;;;;;0.10;0.10;;;17.60;99.90;;;;;;5148787;28;20480;-86
2022/07/28 08:28:12;;;;;;;0.00;0.00;;;17.70;99.90;;;;;;5131580;28;20104;-89
2022/07/28 08:30:39;;;;;;;0.20;0.08;;;17.70;99.90;;;;;;5131579;28;20119;-86
2022/07/28 08:33:06;;;;;;;0.10;0.10;;;17.80;99.90;;;;;;5131571;28;20035;-85
2022/07/28 08:35:34;;;;;;;0.17;0.10;;;17.90;99.90;;;;;;5132307;28;20078;-85
2022/07/28 08:38:02;;;;;;;0.10;0.10;;;18.00;99.90;;;;;;5148609;28;20043;-85
2022/07/28 08:40:31;;;;;;;0.10;0.10;;;18.20;99.90;;;;;;5148367;28;20051;-84
2022/07/28 08:43:41;;;;;;;0.40;0.25;;;18.20;99.90;;;;;;5164675;27;20138;-85
2022/07/28 08:46:08;;;;;;;0.30;0.30;;;18.30;99.90;;;;;;5165224;27;20039;-89
2022/07/28 08:48:37;;;;;;;0.77;0.40;;;18.40;99.90;;;;;;5147819;28;20531;-85
2022/07/28 08:51:09;;;;;;;0.25;0.20;;;18.30;99.90;;;;;;5130575;28;20113;-85
2022/07/28 08:53:38;;;;;;;0.20;0.20;;;18.40;99.90;;;;;;5148228;28;20038;-89
2022/07/28 08:56:11;;;;;;;0.10;0.10;;;18.50;99.90;;;;;;5147757;28;20041;-89
2022/07/28 08:58:38;;;;;;;0.20;0.17;;;18.60;99.90;;;;;;5148010;28;20070;-85
2022/07/28 09:01:09;;;;;;;0.13;0.13;;;18.60;99.90;;;;;;5146852;28;20036;-86
2022/07/28 09:03:38;;;;;;;0.30;0.25;;;18.60;99.90;;;;;;5130758;28;20043;-89
2022/07/28 09:06:05;;;;;;;0.00;0.00;;;18.70;99.90;;;;;;5131167;28;20035;-89
2022/07/28 09:08:32;;;;;;;0.10;0.10;;;18.70;99.90;;;;;;5131880;28;20067;-85
2022/07/28 09:10:58;;;;;;;0.10;0.10;;;18.70;99.90;;;;;;5130388;28;20493;-86
2022/07/28 09:13:25;;;;;;;0.00;0.00;;;18.80;99.90;;;;;;5147569;28;20031;-89
2022/07/28 09:15:52;;;;;;;0.10;0.10;;;18.90;99.90;;;;;;5146912;28;20035;-86
2022/07/28 09:18:19;;;;;;;0.32;0.20;;;18.90;99.90;;;;;;5165747;27;20047;-89
2022/07/28 09:20:46;;;;;;;0.10;0.10;;;19.00;99.90;;;;;;5148067;28;20751;-89
2022/07/28 09:23:12;;;;;;;0.10;0.10;;;18.90;99.90;;;;;;5130126;28;20059;-85
2022/07/28 09:25:39;;;;;;;0.17;0.17;;;18.90;99.90;;;;;;5147551;28;20031;-85
2022/07/28 09:28:07;;;;;;;0.10;0.10;;;18.90;99.90;;;;;;5147620;28;20122;-89
2022/07/28 09:30:39;;;;;;;0.10;0.10;;;19.00;99.90;;;;;;5147772;28;20043;-89
2022/07/28 09:33:20;;;;;;;0.10;0.10;;;19.10;99.90;;;;;;5130350;28;20065;-89
2022/07/28 09:35:52;;;;;;;0.10;0.00;;;19.20;99.90;;;;;;5130894;28;20474;-89
2022/07/28 09:38:21;;;;;;;0.00;0.00;;;19.30;99.90;;;;;;5147750;28;20046;-89
2022/07/28 09:41:03;;;;;;;0.00;0.00;;;19.30;99.90;;;;;;5130481;28;20088;-85
2022/07/28 09:43:35;;;;;;;0.00;0.00;;;19.40;99.90;;;;;;5130240;28;20077;-85
2022/07/28 09:46:04;;;;;;;0.10;0.10;;;19.60;99.90;;;;;;5163819;27;20112;-89
2022/07/28 09:48:31;;;;;;;0.00;0.00;;;19.60;99.90;;;;;;5147777;28;20142;-89
2022/07/28 09:51:11;;;;;;;0.00;0.00;;;19.70;99.90;;;;;;5130475;28;20123;-88
2022/07/28 09:53:38;;;;;;;0.10;0.10;;;19.80;99.90;;;;;;5130522;28;20038;-85
2022/07/28 09:56:06;;;;;;;0.10;0.10;;;19.80;99.90;;;;;;5130172;28;20038;-89
2022/07/28 09:58:33;;;;;;;0.10;0.10;;;19.90;99.90;;;;;;5130857;28;20123;-89
2022/07/28 10:01:06;;;;;;;0.10;0.10;;;19.90;99.90;;;;;;5147586;28;20036;-85
2022/07/28 10:03:34;;;;;;;0.35;0.10;;;20.00;99.90;;;;;;5164301;28;20039;-89
2022/07/28 10:06:10;;;;;;;0.00;0.00;;;20.00;99.90;;;;;;5164110;28;20047;-89
2022/07/28 10:08:41;;;;;;;0.35;0.17;;;20.00;99.90;;;;;;5130932;28;20035;-86
2022/07/28 10:11:10;;;;;;;0.10;0.10;;;20.10;99.90;;;;;;5147727;28;20080;-89
2022/07/28 10:13:56;;;;;;;0.10;0.00;;;20.00;99.90;;;;;;5151508;28;20084;-85
2022/07/28 10:16:25;;;;;;;0.05;0.05;;;20.00;99.90;;;;;;5113729;28;20207;-89
2022/07/28 10:18:52;;;;;;;0.40;0.17;;;20.00;99.90;;;;;;5131089;28;20523;-89
2022/07/28 10:21:21;;;;;;;0.00;0.00;;;20.00;99.90;;;;;;5130645;28;20040;-86
2022/07/28 10:23:54;;;;;;;0.20;0.10;;;20.00;99.90;;;;;;5113404;28;20582;-85
2022/07/28 10:26:25;;;;;;;0.00;0.00;;;20.00;99.90;;;;;;5130025;28;20172;-89
2022/07/28 10:28:54;;;;;;;0.05;0.05;;;19.90;99.90;;;;;;5134155;28;20036;-89
2022/07/28 10:31:33;;;;;;;0.00;0.00;;;19.80;99.90;;;;;;5134219;28;20059;-85
2022/07/28 10:34:02;;;;;;;0.25;0.10;;;19.80;99.90;;;;;;5133920;28;20393;-89
2022/07/28 10:36:31;;;;;;;0.10;0.10;;;19.80;99.90;;;;;;5118246;28;20042;-89
2022/07/28 10:39:08;;;;;;;0.40;0.28;;;19.70;99.90;;;;;;5133522;28;20050;-89
2022/07/28 10:41:39;;;;;;;0.10;0.10;;;19.60;99.90;;;;;;5133371;28;20484;-85
2022/07/28 10:44:08;;;;;;;0.00;0.00;;;19.60;99.90;;;;;;5167214;27;20051;-89
2022/07/28 10:46:36;;;;;;;0.00;0.00;;;19.50;99.90;;;;;;5149854;28;20073;-89
2022/07/28 10:49:03;;;;;;;0.10;0.10;;;19.50;99.90;;;;;;5133440;28;20088;-86
2022/07/28 10:51:30;;;;;;;0.10;0.08;;;19.40;99.90;;;;;;5167834;27;20050;-85
2022/07/28 10:54:16;;;;;;;0.00;0.00;;;19.40;99.90;;;;;;5150555;28;20131;-89
2022/07/28 10:56:52;;;;;;;0.05;0.05;;;19.40;99.90;;;;;;5133507;28;20039;-88
2022/07/28 10:59:42;;;;;;;0.20;0.05;;;19.40;99.90;;;;;;5133718;28;20035;-89
2022/07/28 11:02:44;;;;;;;0.00;0.00;;;19.50;99.90;;;;;;5166855;27;20135;-85
2022/07/28 11:05:37;;;;;;;0.10;0.10;;;19.60;99.90;;;;;;5149928;28;20528;-85
2022/07/28 11:08:08;;;;;;;0.10;0.10;;;19.70;99.90;;;;;;5133299;28;20099;-89
2022/07/28 11:10:49;;;;;;;0.00;0.00;;;19.70;99.90;;;;;;5133197;28;20039;-89
2022/07/28 11:13:42;;;;;;;0.00;0.00;;;19.70;99.90;;;;;;5133006;28;20126;-89
2022/07/28 11:16:12;;;;;;;0.55;0.10;;;19.70;99.90;;;;;;5114223;28;20075;-89
2022/07/28 11:19:01;;;;;;;0.10;0.10;;;19.90;99.90;;;;;;5167316;27;20043;-85
2022/07/28 11:21:27;;;;;;;0.20;0.10;;;19.90;99.90;;;;;;5149984;28;20040;-89
2022/07/28 11:23:56;;;;;;;0.03;0.03;;;20.00;99.90;;;;;;5132121;28;20054;-85
2022/07/28 11:26:22;;;;;;;0.10;0.10;;;19.90;99.90;;;;;;5132341;28;20039;-89
2022/07/28 11:28:58;;;;;;;0.63;0.20;;;19.90;99.90;;;;;;5150166;28;20127;-89
2022/07/28 11:31:44;;;;;;;0.05;0.05;;;19.80;99.90;;;;;;5166872;27;20126;-89
2022/07/28 11:34:17;;;;;;;0.10;0.03;;;19.90;99.90;;;;;;5167031;27;20129;-85
2022/07/28 11:37:08;;;;;;;0.22;0.20;;;20.00;99.90;;;;;;5132483;28;20078;-85
2022/07/28 11:39:37;;;;;;;0.10;0.10;;;19.90;99.90;;;;;;5133151;28;20039;-86
2022/07/28 11:42:24;;;;;;;0.00;0.00;;;19.90;99.90;;;;;;5132415;28;20079;-84
2022/07/28 11:44:55;;;;;;;0.10;0.10;;;19.80;99.90;;;;;;5149954;28;20051;-89
2022/07/28 11:47:23;;;;;;;0.40;0.30;;;19.80;99.90;;;;;;5132188;28;20039;-88
2022/07/28 11:50:10;;;;;;;0.10;0.10;;;19.80;99.90;;;;;;5148964;28;20032;-85
2022/07/28 11:52:38;;;;;;;0.00;0.00;;;19.80;99.90;;;;;;5132488;28;20114;-89
2022/07/28 11:55:05;;;;;;;0.10;0.10;;;19.80;99.90;;;;;;5132895;28;20039;-89
2022/07/28 11:57:40;;;;;;;0.00;0.00;;;19.80;99.90;;;;;;5131767;28;20412;-86
2022/07/28 12:00:07;;;;;;;0.88;0.10;;;20.00;99.90;;;;;;5132767;28;20039;-84
2022/07/28 12:02:34;;;;;;;0.00;0.00;;;20.00;99.90;;;;;;5131892;28;20575;-90
2022/07/28 12:05:10;;;;;;;0.10;0.10;;;20.20;99.90;;;;;;5149038;28;20126;-85
2022/07/28 12:07:57;;;;;;;0.30;0.10;;;20.20;99.90;;;;;;5131877;28;20051;-88
2022/07/28 12:10:29;;;;;;;0.00;0.00;;;20.30;99.90;;;;;;5132749;28;20038;-87
2022/07/28 12:12:59;;;;;;;0.00;0.00;;;20.50;99.90;;;;;;5132633;28;20032;-89
2022/07/28 12:15:27;;;;;;;0.10;0.00;;;20.70;99.90;;;;;;5131595;28;20027;-86
2022/07/28 12:17:54;;;;;;;0.15;0.08;;;20.80;99.90;;;;;;5148433;28;20605;-89
2022/07/28 12:20:21;;;;;;;0.10;0.10;;;21.10;99.90;;;;;;5148143;28;20466;-85
2022/07/28 12:22:56;;;;;;;0.30;0.10;;;21.30;99.90;;;;;;5131560;28;20130;-89
2022/07/28 12:25:23;;;;;;;0.00;0.00;;;21.50;99.90;;;;;;5131761;28;20054;-89
2022/07/28 12:27:50;;;;;;;0.20;0.00;;;21.60;99.90;;;;;;5148859;28;20404;-89
2022/07/28 12:30:26;;;;;;;0.22;0.15;;;21.50;99.70;;;;;;5149075;28;20039;-89
2022/07/28 12:32:54;;;;;;;0.28;0.13;;;21.40;99.50;;;;;;5131814;28;20043;-85
2022/07/28 12:35:22;;;;;;;0.10;0.10;;;21.40;99.70;;;;;;5131064;28;20101;-85
2022/07/28 12:37:50;;;;;;;0.10;0.10;;;21.30;99.40;;;;;;5147994;28;20039;-89
2022/07/28 12:40:18;;;;;;;0.10;0.10;;;21.30;99.70;;;;;;5131108;28;20065;-86
2022/07/28 12:42:52;;;;;;;0.25;0.20;;;21.10;99.70;;;;;;5130707;28;20055;-89
2022/07/28 12:45:19;;;;;;;0.00;0.00;;;21.20;99.90;;;;;;5147415;28;20890;-86
2022/07/28 12:47:46;;;;;;;0.00;0.00;;;21.10;99.70;;;;;;5130491;28;20131;-86
2022/07/28 12:50:19;;;;;;;0.10;0.10;;;21.00;99.80;;;;;;5130720;28;20113;-89
2022/07/28 12:53:05;;;;;;;0.10;0.10;;;21.00;99.40;;;;;;5131267;28;20492;-88
2022/07/28 12:55:33;;;;;;;0.10;0.10;;;21.00;99.40;;;;;;5130578;28;20526;-85
2022/07/28 12:58:00;;;;;;;0.00;0.00;;;21.10;99.80;;;;;;5148246;28;20051;-89
2022/07/28 13:00:32;;;;;;;0.20;0.20;;;21.00;99.00;;;;;;5148333;28;20079;-88
2022/07/28 13:03:23;;;;;;;0.10;0.10;;;21.00;98.70;;;;;;5130647;28;20054;-85
2022/07/28 13:06:03;;;;;;;0.10;0.00;;;20.90;99.00;;;;;;5131326;28;20044;-85